Time;durP1;ratioP1;P1;durP2;ratioP2;P2;SDS_P1;SDS_P2;PMS_P1;PMS_P2;Temp;Humidity;BMP_temperature;BMP_pressure;BME280_temperature;BME280_humidity;BME280_pressure;Samples;Min_cycle;Max_cycle;Signal;HPM_P1;HPM_P2
2022/10/23 00:00:09;;;;;;;6.90;4.93;;;23.50;58.00;;;;;;7716051;22;80921;-61
2022/10/23 00:03:10;;;;;;;5.28;4.78;;;23.50;58.00;;;;;;7717876;22;81902;-60
2022/10/23 00:06:10;;;;;;;6.35;5.10;;;23.50;57.90;;;;;;7719215;22;80285;-62
2022/10/23 00:09:11;;;;;;;7.80;5.50;;;23.50;58.10;;;;;;7717284;22;80960;-61
2022/10/23 00:12:12;;;;;;;6.18;5.07;;;23.60;58.00;;;;;;7713241;22;80945;-62
2022/10/23 00:15:12;;;;;;;7.35;5.43;;;23.60;57.80;;;;;;7718949;22;80688;-61
2022/10/23 00:18:13;;;;;;;5.93;5.00;;;23.50;58.10;;;;;;7717192;22;80988;-61
2022/10/23 00:21:13;;;;;;;7.00;5.00;;;23.60;58.10;;;;;;7720732;22;80519;-62
2022/10/23 00:24:14;;;;;;;6.82;5.18;;;23.60;58.00;;;;;;7717093;22;80780;-61
2022/10/23 00:27:14;;;;;;;8.00;4.80;;;23.60;58.00;;;;;;7717761;22;81214;-63
2022/10/23 00:30:15;;;;;;;5.85;5.22;;;23.60;58.00;;;;;;7716639;22;80167;-62
2022/10/23 00:33:16;;;;;;;6.75;5.00;;;23.60;57.90;;;;;;7690602;22;81458;-62
2022/10/23 00:36:16;;;;;;;5.93;4.70;;;23.60;57.80;;;;;;7717074;22;80692;-62
2022/10/23 00:39:17;;;;;;;6.00;4.85;;;23.60;57.80;;;;;;7715815;22;80155;-62
2022/10/23 00:42:18;;;;;;;5.97;4.43;;;23.60;57.70;;;;;;7716504;22;81055;-63
2022/10/23 00:45:18;;;;;;;7.53;4.78;;;23.60;57.60;;;;;;7690771;22;83276;-63
2022/10/23 00:48:19;;;;;;;8.15;5.68;;;23.60;57.70;;;;;;7720374;22;81827;-61
2022/10/23 00:51:20;;;;;;;6.72;4.35;;;23.60;57.70;;;;;;7689603;22;81735;-62
2022/10/23 00:54:20;;;;;;;6.25;4.10;;;23.60;57.60;;;;;;7720108;22;80830;-62
2022/10/23 00:57:21;;;;;;;6.13;4.82;;;23.60;57.50;;;;;;7686594;22;83064;-61
2022/10/23 01:00:21;;;;;;;7.00;4.80;;;23.60;57.50;;;;;;7715743;22;80175;-61
2022/10/23 01:03:22;;;;;;;5.55;4.32;;;23.60;57.60;;;;;;7688825;22;82053;-62
2022/10/23 01:06:22;;;;;;;7.20;5.18;;;23.60;57.60;;;;;;7718143;22;87278;-62
2022/10/23 01:09:24;;;;;;;5.18;4.57;;;23.60;57.60;;;;;;7688954;22;83529;-61
2022/10/23 01:12:25;;;;;;;5.93;4.75;;;23.60;57.50;;;;;;7690674;22;81803;-61
2022/10/23 01:15:25;;;;;;;5.22;4.47;;;23.60;57.50;;;;;;7687609;22;82644;-61
2022/10/23 01:18:26;;;;;;;6.53;4.80;;;23.60;57.40;;;;;;7691498;22;83171;-60
2022/10/23 01:21:27;;;;;;;5.10;4.22;;;23.70;57.50;;;;;;7688990;22;82933;-62
2022/10/23 01:24:28;;;;;;;5.68;4.38;;;23.60;57.50;;;;;;7717282;22;80341;-61
2022/10/23 01:27:28;;;;;;;5.90;4.80;;;23.60;57.50;;;;;;7688499;22;83137;-62
2022/10/23 01:30:29;;;;;;;6.05;4.55;;;23.60;57.50;;;;;;7688653;22;82892;-60
2022/10/23 01:33:29;;;;;;;5.90;4.95;;;23.60;57.50;;;;;;7717520;22;80563;-58
2022/10/23 01:36:30;;;;;;;6.60;4.78;;;23.60;57.40;;;;;;7690624;22;82887;-58
2022/10/23 01:39:32;;;;;;;6.78;5.38;;;23.60;57.50;;;;;;7688250;22;83390;-59
2022/10/23 01:42:33;;;;;;;6.78;5.15;;;23.60;57.40;;;;;;7690921;22;83001;-59
2022/10/23 01:45:34;;;;;;;5.25;4.68;;;23.60;57.30;;;;;;7686190;22;81389;-59
2022/10/23 01:48:34;;;;;;;5.88;4.40;;;23.60;57.50;;;;;;7688607;22;83421;-63
2022/10/23 01:51:35;;;;;;;5.90;4.65;;;23.60;57.30;;;;;;7689239;22;83255;-62
2022/10/23 01:54:38;;;;;;;6.35;4.82;;;23.60;57.30;;;;;;7690684;22;82837;-63
2022/10/23 01:57:39;;;;;;;5.38;4.70;;;23.60;57.30;;;;;;7690521;22;83751;-62
2022/10/23 02:00:40;;;;;;;5.47;4.22;;;23.60;57.20;;;;;;7689607;22;81757;-61
2022/10/23 02:03:42;;;;;;;6.82;4.65;;;23.60;57.50;;;;;;7689667;22;82542;-61
2022/10/23 02:06:43;;;;;;;7.80;5.18;;;23.60;57.30;;;;;;7688775;22;83239;-62
2022/10/23 02:09:43;;;;;;;4.63;4.15;;;23.60;57.30;;;;;;7716017;22;79881;-58
2022/10/23 02:12:44;;;;;;;7.15;4.90;;;23.60;57.20;;;;;;7687973;22;81562;-60
2022/10/23 02:15:45;;;;;;;6.85;4.43;;;23.60;57.20;;;;;;7716393;22;81075;-60
2022/10/23 02:18:45;;;;;;;5.57;4.25;;;23.60;57.20;;;;;;7687649;22;83516;-61
2022/10/23 02:21:46;;;;;;;5.80;4.18;;;23.60;57.20;;;;;;7719490;22;80397;-61
2022/10/23 02:24:46;;;;;;;7.05;4.38;;;23.60;57.20;;;;;;7713961;22;80075;-62
2022/10/23 02:27:47;;;;;;;5.72;4.30;;;23.60;57.10;;;;;;7718800;22;80521;-62
2022/10/23 02:30:48;;;;;;;4.90;4.15;;;23.60;57.00;;;;;;7686570;22;80850;-62
2022/10/23 02:33:49;;;;;;;6.35;4.50;;;23.60;57.10;;;;;;7688374;22;81740;-63
2022/10/23 02:36:49;;;;;;;5.90;4.28;;;23.60;57.20;;;;;;7690405;22;83083;-63
2022/10/23 02:39:53;;;;;;;4.90;3.70;;;23.60;57.20;;;;;;7688417;22;81720;-61
2022/10/23 02:42:54;;;;;;;7.65;4.90;;;23.60;57.20;;;;;;7689334;22;83559;-62
2022/10/23 02:45:54;;;;;;;5.45;4.25;;;23.60;57.00;;;;;;7689260;22;83081;-60
2022/10/23 02:48:55;;;;;;;4.35;3.72;;;23.60;56.90;;;;;;7716305;22;81400;-62
2022/10/23 02:51:56;;;;;;;6.93;4.28;;;23.60;57.10;;;;;;7691320;22;81144;-61
2022/10/23 02:54:57;;;;;;;6.47;4.90;;;23.60;57.00;;;;;;7715441;22;80517;-62
2022/10/23 02:57:57;;;;;;;5.13;4.10;;;23.60;57.20;;;;;;7686345;22;83051;-62
2022/10/23 03:00:58;;;;;;;9.68;4.63;;;23.60;57.20;;;;;;7690832;22;83027;-61
2022/10/23 03:03:59;;;;;;;5.18;4.35;;;23.60;57.10;;;;;;7690749;22;82515;-62
2022/10/23 03:06:59;;;;;;;5.38;4.43;;;23.60;57.00;;;;;;7688928;22;83159;-62
2022/10/23 03:10:00;;;;;;;5.85;4.53;;;23.60;56.90;;;;;;7689529;22;83214;-60
2022/10/23 03:13:00;;;;;;;4.18;3.72;;;23.60;56.70;;;;;;7689849;22;83097;-60
2022/10/23 03:16:05;;;;;;;5.78;3.88;;;23.60;56.70;;;;;;7685427;22;84710;-61
2022/10/23 03:19:07;;;;;;;4.68;3.75;;;23.60;56.90;;;;;;7688566;22;82283;-61
2022/10/23 03:22:09;;;;;;;5.53;4.28;;;23.60;56.70;;;;;;7716700;22;80713;-61
2022/10/23 03:25:10;;;;;;;4.13;3.72;;;23.60;57.10;;;;;;7688898;22;83234;-60
2022/10/23 03:28:10;;;;;;;7.20;3.85;;;23.60;57.00;;;;;;7685868;22;83258;-62
2022/10/23 03:31:11;;;;;;;6.00;4.15;;;23.60;56.80;;;;;;7689066;22;80575;-62
2022/10/23 03:34:13;;;;;;;4.40;3.67;;;23.60;56.90;;;;;;7692055;22;82275;-62
2022/10/23 03:37:14;;;;;;;4.57;3.78;;;23.60;56.90;;;;;;7689744;22;82955;-61
2022/10/23 03:40:15;;;;;;;5.07;4.32;;;23.60;57.00;;;;;;7717778;22;81039;-62
2022/10/23 03:43:16;;;;;;;4.97;3.97;;;23.60;57.00;;;;;;7715678;22;80400;-61
2022/10/23 03:46:16;;;;;;;4.43;3.65;;;23.60;57.00;;;;;;7686189;22;83187;-61
2022/10/23 03:49:17;;;;;;;5.30;4.22;;;23.70;56.90;;;;;;7690946;22;83724;-61
2022/10/23 03:52:17;;;;;;;5.85;4.00;;;23.70;56.90;;;;;;7715706;22;80458;-61
2022/10/23 03:55:18;;;;;;;4.25;3.72;;;23.70;56.80;;;;;;7716369;22;80154;-60
2022/10/23 03:58:18;;;;;;;4.75;3.63;;;23.70;56.80;;;;;;7716840;22;80048;-60
2022/10/23 04:01:19;;;;;;;5.35;4.22;;;23.70;56.70;;;;;;7690850;22;82949;-61
2022/10/23 04:04:20;;;;;;;4.55;3.53;;;23.70;56.70;;;;;;7684501;22;83048;-62
2022/10/23 04:07:21;;;;;;;5.53;4.15;;;23.70;56.70;;;;;;7683774;22;82754;-62
2022/10/23 04:10:22;;;;;;;5.65;4.32;;;23.70;56.60;;;;;;7686051;22;81319;-64
2022/10/23 04:13:23;;;;;;;5.55;4.13;;;23.70;56.60;;;;;;7690162;22;82695;-65
2022/10/23 04:16:25;;;;;;;4.85;3.80;;;23.70;56.50;;;;;;7672070;22;83974;-65
2022/10/23 04:19:25;;;;;;;4.97;3.80;;;23.70;56.60;;;;;;7679245;22;83859;-61
2022/10/23 04:22:29;;;;;;;4.93;3.40;;;23.80;56.80;;;;;;7655904;22;83211;-62
2022/10/23 04:25:29;;;;;;;4.30;3.90;;;23.80;57.00;;;;;;7713091;22;80345;-64
2022/10/23 04:28:30;;;;;;;4.97;3.83;;;23.80;57.00;;;;;;7717456;22;80583;-65
2022/10/23 04:31:30;;;;;;;3.80;3.30;;;23.80;57.00;;;;;;7684638;22;83509;-65
2022/10/23 04:34:31;;;;;;;4.85;4.30;;;23.90;56.90;;;;;;7676295;22;83736;-63
2022/10/23 04:37:31;;;;;;;6.65;3.80;;;23.90;57.20;;;;;;7683536;22;80721;-63
2022/10/23 04:40:33;;;;;;;4.47;3.97;;;23.90;57.40;;;;;;7683776;22;82898;-61
2022/10/23 04:43:34;;;;;;;6.65;3.45;;;23.90;57.40;;;;;;7666179;22;81838;-62
2022/10/23 04:46:36;;;;;;;9.35;3.80;;;23.90;57.50;;;;;;7678614;22;83582;-59
2022/10/23 04:49:38;;;;;;;4.63;3.85;;;23.90;57.40;;;;;;7681393;22;82444;-61
2022/10/23 04:52:53;;;;;;;13.93;3.83;;;23.90;57.30;;;;;;7684680;22;83221;-62
2022/10/23 04:56:11;;;;;;;6.57;4.13;;;24.00;57.20;;;;;;7716100;22;80308;-59
2022/10/23 04:59:21;;;;;;;6.18;3.53;;;23.90;57.60;;;;;;7687538;22;83495;-59
2022/10/23 05:02:23;;;;;;;4.95;3.80;;;23.90;57.50;;;;;;7689622;22;82966;-61
2022/10/23 05:05:24;;;;;;;7.75;4.85;;;24.00;57.20;;;;;;7686106;22;83233;-58
2022/10/23 05:08:39;;;;;;;9.65;5.18;;;24.00;56.80;;;;;;7678062;22;81310;-60
2022/10/23 05:12:02;;;;;;;11.32;5.25;;;24.00;56.50;;;;;;7708359;22;80731;-59
2022/10/23 05:15:03;;;;;;;8.40;5.95;;;23.90;56.40;;;;;;7689168;22;82512;-60
2022/10/23 05:18:04;;;;;;;15.23;6.00;;;23.90;56.50;;;;;;7681803;22;81640;-56
2022/10/23 05:21:04;;;;;;;14.30;6.72;;;23.90;56.10;;;;;;7711883;22;80640;-59
2022/10/23 05:24:05;;;;;;;11.30;7.32;;;23.90;55.90;;;;;;7711482;22;80606;-58
2022/10/23 05:27:05;;;;;;;11.38;7.57;;;23.90;55.70;;;;;;7709041;22;80118;-58
2022/10/23 05:30:06;;;;;;;10.68;7.35;;;23.90;55.30;;;;;;7686167;22;83148;-59
2022/10/23 05:33:10;;;;;;;15.48;7.22;;;23.90;55.80;;;;;;7681780;22;83567;-59
2022/10/23 05:36:14;;;;;;;9.82;6.88;;;23.90;55.00;;;;;;7684968;22;82256;-60
2022/10/23 05:39:16;;;;;;;12.25;7.75;;;23.90;54.80;;;;;;7687062;22;82531;-58
2022/10/23 05:42:17;;;;;;;11.10;7.38;;;23.90;54.40;;;;;;7687288;22;87228;-59
2022/10/23 05:45:19;;;;;;;13.82;8.48;;;23.80;54.40;;;;;;7680599;22;82076;-50
2022/10/23 05:48:38;;;;;;;11.00;7.60;;;23.90;54.30;;;;;;7710250;22;80476;-51
2022/10/23 05:51:50;;;;;;;10.65;7.82;;;23.90;54.20;;;;;;7712362;22;80155;-49
2022/10/23 05:55:05;;;;;;;9.43;7.10;;;23.90;54.30;;;;;;7713104;22;80929;-51
2022/10/23 05:58:28;;;;;;;10.88;6.57;;;23.90;54.40;;;;;;7681376;22;88687;-50
2022/10/23 06:01:54;;;;;;;;;;;23.80;54.30;;;;;;7676245;22;80637;-50
2022/10/23 06:05:07;;;;;;;10.30;7.13;;;23.90;54.50;;;;;;7688735;22;82636;-48
2022/10/23 06:08:32;;;;;;;14.88;6.78;;;23.90;54.50;;;;;;7679238;22;80024;-49
2022/10/23 06:11:33;;;;;;;9.60;6.70;;;23.90;54.50;;;;;;7683943;22;82670;-48
2022/10/23 06:14:40;;;;;;;9.43;6.30;;;23.90;54.60;;;;;;7668427;22;81407;-49
2022/10/23 06:17:41;;;;;;;8.65;6.10;;;24.00;54.80;;;;;;7651132;22;82132;-48
2022/10/23 06:20:41;;;;;;;8.68;6.47;;;23.90;54.80;;;;;;7710557;22;81292;-48
2022/10/23 06:23:47;;;;;;;;;;;24.00;54.90;;;;;;7686552;22;83273;-57
2022/10/23 06:27:08;;;;;;;9.32;6.30;;;24.00;54.60;;;;;;7716178;22;79193;-50
2022/10/23 06:30:15;;;;;;;12.82;6.90;;;24.00;54.50;;;;;;7680805;22;80042;-48
2022/10/23 06:33:20;;;;;;;8.77;6.57;;;24.10;54.60;;;;;;7677534;22;83415;-50
2022/10/23 06:36:21;;;;;;;10.55;7.03;;;24.10;54.60;;;;;;7684878;22;82857;-53
2022/10/23 06:39:22;;;;;;;10.13;6.38;;;24.10;54.50;;;;;;7710578;22;87344;-54
2022/10/23 06:42:32;;;;;;;9.25;6.75;;;24.10;54.60;;;;;;7663302;22;82900;-61
2022/10/23 06:45:33;;;;;;;12.25;7.55;;;24.20;54.50;;;;;;7714966;22;80491;-60
2022/10/23 06:48:45;;;;;;;9.98;6.97;;;24.20;54.30;;;;;;7714631;22;81078;-60
2022/10/23 06:51:52;;;;;;;12.05;6.72;;;24.20;54.50;;;;;;7678692;22;83611;-61
2022/10/23 06:54:55;;;;;;;11.65;7.43;;;24.20;54.10;;;;;;7678592;22;84110;-63
2022/10/23 06:57:59;;;;;;;12.30;7.20;;;24.20;54.20;;;;;;7673265;22;82822;-62
2022/10/23 07:01:00;;;;;;;11.70;6.78;;;24.20;54.20;;;;;;7668103;22;83596;-66
2022/10/23 07:04:00;;;;;;;9.98;7.25;;;24.30;54.40;;;;;;7669314;22;83178;-68
2022/10/23 07:07:01;;;;;;;13.98;6.55;;;24.30;54.30;;;;;;7676454;22;83589;-65
2022/10/23 07:10:10;;;;;;;12.40;7.68;;;24.30;54.60;;;;;;7680547;22;82480;-65
2022/10/23 07:13:21;;;;;;;9.40;7.10;;;24.30;54.80;;;;;;7686150;22;82703;-65
2022/10/23 07:16:44;;;;;;;12.55;7.60;;;24.30;55.30;;;;;;7692290;22;84788;-62
2022/10/23 07:19:45;;;;;;;10.10;6.78;;;24.30;55.50;;;;;;7673932;22;81357;-66
2022/10/23 07:22:46;;;;;;;15.50;7.75;;;24.30;56.30;;;;;;7673516;22;82798;-66
2022/10/23 07:25:48;;;;;;;9.98;7.25;;;24.40;55.70;;;;;;7701949;22;80567;-62
2022/10/23 07:28:54;;;;;;;14.80;8.00;;;24.40;55.90;;;;;;7672790;22;83239;-64
2022/10/23 07:31:56;;;;;;;14.27;8.57;;;24.40;55.80;;;;;;7682072;22;83077;-61
2022/10/23 07:35:15;;;;;;;11.63;8.45;;;24.40;55.40;;;;;;7708452;22;80248;-57
2022/10/23 07:38:26;;;;;;;13.18;8.20;;;24.40;55.50;;;;;;7681470;22;83258;-58
2022/10/23 07:41:28;;;;;;;12.23;8.18;;;24.40;55.80;;;;;;7681831;22;83521;-54
2022/10/23 07:44:28;;;;;;;18.35;9.18;;;24.40;55.50;;;;;;7677157;22;82357;-54
2022/10/23 07:47:31;;;;;;;13.93;8.52;;;24.30;55.80;;;;;;7679555;22;83213;-55
2022/10/23 07:50:33;;;;;;;14.52;8.10;;;24.30;56.20;;;;;;7678436;22;82799;-57
2022/10/23 07:53:34;;;;;;;15.85;8.45;;;24.30;56.40;;;;;;7670950;22;83027;-62
2022/10/23 07:56:42;;;;;;;17.10;8.20;;;24.30;56.60;;;;;;7678232;22;81570;-62
2022/10/23 07:59:49;;;;;;;11.27;7.75;;;24.30;55.50;;;;;;7675959;22;82563;-57
2022/10/23 08:02:54;;;;;;;13.73;8.18;;;24.20;55.50;;;;;;7674575;22;82203;-56
2022/10/23 08:05:54;;;;;;;14.57;7.00;;;24.20;56.00;;;;;;7684142;22;82101;-60
2022/10/23 08:08:55;;;;;;;18.70;7.70;;;24.10;55.90;;;;;;7684482;22;82606;-59
2022/10/23 08:11:56;;;;;;;8.45;7.15;;;24.10;55.60;;;;;;7686445;22;83708;-61
2022/10/23 08:15:00;;;;;;;10.63;6.93;;;24.10;56.20;;;;;;7683355;22;83201;-59
2022/10/23 08:18:08;;;;;;;9.18;7.05;;;24.10;55.40;;;;;;7681292;22;82661;-61
2022/10/23 08:21:14;;;;;;;10.07;7.63;;;24.10;55.60;;;;;;7686048;22;83211;-63
2022/10/23 08:24:15;;;;;;;11.10;7.70;;;24.10;55.40;;;;;;7689753;22;83145;-61
2022/10/23 08:27:18;;;;;;;13.05;8.18;;;24.10;55.30;;;;;;7688749;22;83010;-64
2022/10/23 08:30:20;;;;;;;12.32;7.50;;;24.10;55.20;;;;;;7684747;22;82550;-60
2022/10/23 08:33:21;;;;;;;12.23;7.53;;;24.20;55.20;;;;;;7716579;22;81021;-60
2022/10/23 08:36:22;;;;;;;11.70;7.53;;;24.30;55.20;;;;;;7689716;22;80549;-59
2022/10/23 08:39:22;;;;;;;12.02;7.80;;;24.40;55.30;;;;;;7719168;22;81303;-62
2022/10/23 08:42:35;;;;;;;14.35;7.55;;;24.40;54.90;;;;;;7690221;22;83052;-61
2022/10/23 08:45:37;;;;;;;9.27;6.95;;;24.50;54.80;;;;;;7687314;22;81816;-63
2022/10/23 08:48:45;;;;;;;10.85;7.20;;;24.40;54.70;;;;;;7688736;22;81586;-58
2022/10/23 08:52:04;;;;;;;9.88;7.03;;;24.40;54.60;;;;;;7713198;22;81309;-59
2022/10/23 08:55:05;;;;;;;10.07;6.97;;;24.40;54.60;;;;;;7716462;22;80992;-58
2022/10/23 08:58:05;;;;;;;16.00;6.40;;;24.30;54.70;;;;;;7718147;22;79915;-57
2022/10/23 09:01:06;;;;;;;11.15;5.53;;;24.30;54.40;;;;;;7711646;22;80010;-58
2022/10/23 09:04:06;;;;;;;9.38;6.32;;;24.40;54.50;;;;;;7716255;22;81507;-59
2022/10/23 09:07:07;;;;;;;9.77;5.85;;;24.50;53.80;;;;;;7717344;22;86865;-56
2022/10/23 09:10:07;;;;;;;9.25;5.90;;;24.40;54.20;;;;;;7717969;22;80157;-58
2022/10/23 09:13:08;;;;;;;16.00;5.57;;;24.20;54.10;;;;;;7696343;22;80372;-59
2022/10/23 09:16:08;;;;;;;6.93;4.47;;;24.10;54.50;;;;;;7711774;22;81634;-59
2022/10/23 09:19:09;;;;;;;11.40;4.80;;;24.30;54.30;;;;;;7690956;22;80843;-58
2022/10/23 09:22:09;;;;;;;7.05;4.47;;;24.40;53.70;;;;;;7707156;22;81138;-59
2022/10/23 09:25:10;;;;;;;8.18;4.80;;;24.40;53.30;;;;;;7711635;22;81273;-61
2022/10/23 09:28:11;;;;;;;6.57;3.85;;;24.30;53.00;;;;;;7715040;22;80717;-61
2022/10/23 09:31:11;;;;;;;8.00;4.63;;;24.20;53.30;;;;;;7714662;22;80360;-61
2022/10/23 09:34:12;;;;;;;9.93;3.78;;;24.30;52.90;;;;;;7714961;22;79951;-63
2022/10/23 09:37:12;;;;;;;4.72;3.10;;;24.40;52.60;;;;;;7712083;22;81131;-62
2022/10/23 09:40:13;;;;;;;4.97;3.15;;;24.40;52.30;;;;;;7713157;22;80414;-61
2022/10/23 09:43:13;;;;;;;5.35;3.47;;;24.50;52.30;;;;;;7713226;22;80504;-61
2022/10/23 09:46:14;;;;;;;8.57;3.80;;;24.60;52.10;;;;;;7683743;22;83560;-61
2022/10/23 09:49:15;;;;;;;3.92;2.85;;;24.60;52.00;;;;;;7683778;22;83017;-60
2022/10/23 09:52:16;;;;;;;6.95;3.00;;;24.70;51.70;;;;;;7711936;22;80973;-59
2022/10/23 09:55:17;;;;;;;3.72;2.90;;;24.90;51.80;;;;;;7711597;22;81130;-60
2022/10/23 09:58:17;;;;;;;4.45;2.90;;;24.80;51.40;;;;;;7707006;22;80601;-60
2022/10/23 10:01:17;;;;;;;3.85;3.00;;;24.90;51.20;;;;;;7714979;22;81780;-60
2022/10/23 10:04:23;;;;;;;8.73;3.65;;;25.10;51.20;;;;;;7689559;22;80831;-62
2022/10/23 10:07:23;;;;;;;6.63;2.67;;;25.10;50.90;;;;;;7690763;22;81912;-61
2022/10/23 10:10:24;;;;;;;4.32;2.90;;;25.10;50.70;;;;;;7717816;22;81558;-59
2022/10/23 10:13:24;;;;;;;8.13;2.83;;;25.20;50.40;;;;;;7715140;22;80283;-58
2022/10/23 10:16:25;;;;;;;7.15;2.45;;;25.30;50.10;;;;;;7718588;22;80776;-60
2022/10/23 10:19:26;;;;;;;4.05;2.53;;;25.50;50.10;;;;;;7707603;22;80868;-60
2022/10/23 10:22:26;;;;;;;7.93;2.50;;;25.50;50.10;;;;;;7712353;22;80376;-61
2022/10/23 10:25:27;;;;;;;5.40;2.92;;;25.60;50.00;;;;;;7713613;22;80565;-60
2022/10/23 10:28:27;;;;;;;5.00;2.42;;;25.70;49.80;;;;;;7714745;22;83740;-58
2022/10/23 10:31:28;;;;;;;3.58;2.75;;;25.80;50.00;;;;;;7713128;22;80608;-59
2022/10/23 10:34:28;;;;;;;5.57;2.53;;;25.90;50.00;;;;;;7715096;22;80475;-60
2022/10/23 10:37:29;;;;;;;5.78;2.40;;;25.90;49.40;;;;;;7715949;22;81138;-59
2022/10/23 10:40:29;;;;;;;3.20;2.53;;;26.00;48.80;;;;;;7717753;22;80326;-61
2022/10/23 10:43:30;;;;;;;5.60;2.80;;;26.10;48.80;;;;;;7685790;22;81099;-61
2022/10/23 10:46:31;;;;;;;5.15;2.28;;;26.10;48.50;;;;;;7717369;22;81671;-60
2022/10/23 10:49:31;;;;;;;5.43;2.58;;;26.20;48.30;;;;;;7717896;22;81319;-60
2022/10/23 10:52:51;;;;;;;5.72;2.40;;;26.30;48.40;;;;;;7690304;22;83601;-59
2022/10/23 10:55:52;;;;;;;7.97;2.67;;;26.30;48.30;;;;;;7709406;22;81678;-61
2022/10/23 10:58:52;;;;;;;4.10;2.58;;;26.30;48.30;;;;;;7715429;22;80375;-59
2022/10/23 11:01:53;;;;;;;4.35;2.55;;;26.30;48.20;;;;;;7715660;22;81011;-58
2022/10/23 11:04:53;;;;;;;5.70;2.55;;;26.40;48.40;;;;;;7713062;22;80319;-59
2022/10/23 11:07:54;;;;;;;5.47;2.78;;;26.40;48.50;;;;;;7711083;22;80677;-58
2022/10/23 11:10:55;;;;;;;5.13;2.88;;;26.50;49.40;;;;;;7712223;22;80603;-59
2022/10/23 11:13:56;;;;;;;7.10;3.50;;;26.50;48.80;;;;;;7711896;22;81259;-59
2022/10/23 11:16:56;;;;;;;4.30;2.55;;;26.50;48.90;;;;;;7712013;22;81589;-58
2022/10/23 11:19:57;;;;;;;4.57;2.90;;;26.60;49.10;;;;;;7714035;22;80397;-60
2022/10/23 11:22:57;;;;;;;5.80;2.95;;;26.60;49.40;;;;;;7716070;22;80474;-59
2022/10/23 11:25:58;;;;;;;7.47;3.45;;;26.60;49.00;;;;;;7714491;22;80590;-59
2022/10/23 11:28:59;;;;;;;11.18;3.53;;;26.60;48.50;;;;;;7716149;22;81066;-59
2022/10/23 11:31:59;;;;;;;11.25;3.10;;;26.60;49.00;;;;;;7690782;22;83109;-61
2022/10/23 11:35:00;;;;;;;11.40;4.45;;;26.60;48.90;;;;;;7717326;22;81882;-63
2022/10/23 11:38:00;;;;;;;39.28;12.55;;;26.60;49.40;;;;;;7712253;22;81663;-60
2022/10/23 11:41:01;;;;;;;52.80;15.07;;;26.60;50.00;;;;;;7708074;22;83847;-63
2022/10/23 11:44:04;;;;;;;45.95;11.98;;;26.60;50.20;;;;;;7681604;22;82790;-64
2022/10/23 11:47:05;;;;;;;53.10;15.85;;;26.60;49.90;;;;;;7681935;22;86375;-63
2022/10/23 11:50:06;;;;;;;96.47;25.67;;;26.70;49.90;;;;;;7679915;22;84057;-62
2022/10/23 11:53:09;;;;;;;78.50;23.50;;;26.80;50.20;;;;;;7710221;22;83290;-62
2022/10/23 11:56:10;;;;;;;66.47;19.83;;;26.80;51.20;;;;;;7714388;22;83032;-59
2022/10/23 11:59:10;;;;;;;69.97;18.17;;;26.80;50.50;;;;;;7712843;22;83244;-60
2022/10/23 12:02:11;;;;;;;50.85;15.95;;;26.80;50.30;;;;;;7709525;22;84032;-61
2022/10/23 12:05:11;;;;;;;41.45;13.98;;;26.90;50.30;;;;;;7705226;22;83150;-62
2022/10/23 12:08:12;;;;;;;28.20;10.13;;;26.90;50.20;;;;;;7715435;22;84948;-60
2022/10/23 12:11:13;;;;;;;28.80;10.40;;;27.00;50.10;;;;;;7713270;22;82843;-60
2022/10/23 12:14:13;;;;;;;22.77;8.07;;;27.00;50.20;;;;;;7712033;22;83731;-61
2022/10/23 12:17:14;;;;;;;24.83;7.57;;;26.90;49.50;;;;;;7690221;22;84276;-60
2022/10/23 12:20:14;;;;;;;22.52;7.75;;;26.90;49.60;;;;;;7719215;22;80439;-61
2022/10/23 12:23:15;;;;;;;14.85;6.38;;;26.80;49.80;;;;;;7716548;22;80358;-60
2022/10/23 12:26:15;;;;;;;12.95;5.57;;;26.70;49.50;;;;;;7716756;22;80204;-64
2022/10/23 12:29:16;;;;;;;13.07;6.72;;;26.70;49.70;;;;;;7710197;22;81137;-63
2022/10/23 12:32:16;;;;;;;13.98;6.40;;;26.60;49.80;;;;;;7711935;22;81904;-61
2022/10/23 12:35:18;;;;;;;10.25;6.13;;;26.50;49.80;;;;;;7711047;22;81859;-62
2022/10/23 12:38:18;;;;;;;11.77;6.13;;;26.50;50.00;;;;;;7711926;22;81143;-62
2022/10/23 12:41:19;;;;;;;8.05;5.35;;;26.40;50.10;;;;;;7710404;22;80772;-59
2022/10/23 12:44:20;;;;;;;11.15;5.13;;;26.40;50.10;;;;;;7682007;22;83311;-61
2022/10/23 12:47:21;;;;;;;8.73;5.30;;;26.30;49.90;;;;;;7712194;22;80293;-61
2022/10/23 12:50:22;;;;;;;8.18;5.30;;;26.30;50.00;;;;;;7681849;22;80312;-60
2022/10/23 12:53:23;;;;;;;12.63;5.30;;;26.20;50.20;;;;;;7667842;22;81959;-61
2022/10/23 12:56:23;;;;;;;10.63;5.45;;;26.20;50.20;;;;;;7712045;22;81094;-62
2022/10/23 12:59:25;;;;;;;13.18;5.53;;;26.20;50.50;;;;;;7684298;22;80417;-61
2022/10/23 13:02:25;;;;;;;6.78;4.97;;;26.20;50.40;;;;;;7713309;22;81638;-61
2022/10/23 13:05:26;;;;;;;12.38;5.20;;;26.30;50.70;;;;;;7716937;22;81314;-61
2022/10/23 13:08:28;;;;;;;9.23;5.30;;;26.30;50.70;;;;;;7713666;22;81827;-51
2022/10/23 13:11:58;;;;;;;10.20;5.15;;;26.40;50.60;;;;;;7695980;22;80737;-50
2022/10/23 13:14:59;;;;;;;11.25;5.65;;;26.40;50.50;;;;;;7686656;22;82474;-49
2022/10/23 13:18:00;;;;;;;10.82;5.50;;;26.40;50.60;;;;;;7717883;22;80869;-47
2022/10/23 13:21:01;;;;;;;8.55;5.40;;;26.40;50.10;;;;;;7712996;22;80008;-51
2022/10/23 13:24:01;;;;;;;7.57;5.38;;;26.50;50.30;;;;;;7715211;22;80477;-48
2022/10/23 13:27:02;;;;;;;7.70;4.82;;;26.50;50.40;;;;;;7717503;22;80458;-59
2022/10/23 13:30:02;;;;;;;9.75;4.90;;;26.50;50.40;;;;;;7717013;22;81340;-56
2022/10/23 13:33:03;;;;;;;7.82;5.63;;;26.40;50.20;;;;;;7717819;22;81716;-58
2022/10/23 13:36:04;;;;;;;9.75;5.57;;;26.40;50.10;;;;;;7713204;22;81222;-58
2022/10/23 13:39:04;;;;;;;8.57;5.68;;;26.40;50.30;;;;;;7715147;22;80202;-58
2022/10/23 13:42:05;;;;;;;9.50;5.40;;;26.30;50.50;;;;;;7718513;22;80297;-60
2022/10/23 13:45:06;;;;;;;9.35;5.50;;;26.30;50.30;;;;;;7716002;22;80386;-52
2022/10/23 13:48:06;;;;;;;13.70;5.00;;;26.30;50.10;;;;;;7716880;22;80462;-53
2022/10/23 13:51:07;;;;;;;7.97;5.72;;;26.30;50.30;;;;;;7713541;22;81325;-49
2022/10/23 13:54:07;;;;;;;10.55;5.20;;;26.20;50.20;;;;;;7719366;22;81276;-48
2022/10/23 13:57:08;;;;;;;11.15;6.00;;;26.20;51.20;;;;;;7717484;22;82844;-51
2022/10/23 14:00:08;;;;;;;9.10;5.63;;;26.20;52.00;;;;;;7710919;22;81123;-54
2022/10/23 14:03:12;;;;;;;9.50;6.20;;;26.30;51.30;;;;;;7714284;22;80281;-59
2022/10/23 14:06:12;;;;;;;11.00;5.90;;;26.30;50.60;;;;;;7707082;22;80221;-53
2022/10/23 14:09:13;;;;;;;9.55;5.68;;;26.20;50.60;;;;;;7714349;22;80386;-58
2022/10/23 14:12:13;;;;;;;8.43;5.82;;;26.10;50.60;;;;;;7717191;22;80324;-60
2022/10/23 14:15:14;;;;;;;8.95;5.45;;;26.10;50.60;;;;;;7716689;22;80473;-60
2022/10/23 14:18:15;;;;;;;7.68;5.68;;;25.90;50.40;;;;;;7688974;22;80810;-59
2022/10/23 14:21:15;;;;;;;9.02;5.60;;;25.90;50.30;;;;;;7688616;22;80963;-58
2022/10/23 14:24:16;;;;;;;8.90;5.45;;;25.90;50.40;;;;;;7714385;22;80409;-58
2022/10/23 14:27:16;;;;;;;19.13;6.30;;;25.80;50.50;;;;;;7711742;22;81032;-60
2022/10/23 14:30:17;;;;;;;10.43;5.88;;;25.80;51.00;;;;;;7718715;22;80341;-59
2022/10/23 14:33:17;;;;;;;8.32;6.20;;;25.80;51.30;;;;;;7712644;22;80948;-58
2022/10/23 14:36:18;;;;;;;7.18;5.45;;;25.80;51.20;;;;;;7707921;22;81277;-59
2022/10/23 14:39:19;;;;;;;8.43;5.75;;;25.70;51.10;;;;;;7710323;22;81286;-58
2022/10/23 14:42:19;;;;;;;7.30;5.50;;;25.70;51.50;;;;;;7710234;22;80176;-56
2022/10/23 14:45:20;;;;;;;8.43;5.82;;;25.70;51.60;;;;;;7714046;22;80971;-58
2022/10/23 14:48:20;;;;;;;11.02;6.28;;;25.70;51.60;;;;;;7716494;22;81194;-57
2022/10/23 14:51:21;;;;;;;8.80;5.90;;;25.70;51.60;;;;;;7711540;22;80443;-58
2022/10/23 14:54:22;;;;;;;9.05;5.15;;;25.60;51.80;;;;;;7714794;22;81085;-58
2022/10/23 14:57:22;;;;;;;13.57;5.78;;;25.50;52.00;;;;;;7713921;22;87673;-58
2022/10/23 15:00:23;;;;;;;13.15;6.90;;;25.50;52.10;;;;;;7715435;22;80316;-60
2022/10/23 15:03:23;;;;;;;14.75;6.88;;;25.50;52.20;;;;;;7717043;22;80410;-57
2022/10/23 15:06:24;;;;;;;13.23;6.80;;;25.50;52.30;;;;;;7717212;22;81599;-59
2022/10/23 15:09:24;;;;;;;9.52;6.30;;;25.40;52.20;;;;;;7717364;22;81689;-57
2022/10/23 15:12:25;;;;;;;11.02;6.38;;;25.30;52.10;;;;;;7715287;22;80963;-54
2022/10/23 15:15:25;;;;;;;11.00;6.35;;;25.30;52.00;;;;;;7717173;22;80635;-54
2022/10/23 15:18:26;;;;;;;8.52;6.18;;;25.30;52.40;;;;;;7715449;22;81406;-56
2022/10/23 15:21:26;;;;;;;8.02;6.00;;;25.30;52.40;;;;;;7714384;22;80922;-56
2022/10/23 15:24:27;;;;;;;10.75;6.93;;;25.20;52.40;;;;;;7716206;22;86671;-58
2022/10/23 15:27:28;;;;;;;8.63;5.88;;;25.20;52.40;;;;;;7716771;22;80367;-55
2022/10/23 15:30:28;;;;;;;11.70;6.85;;;25.10;52.70;;;;;;7710377;22;81554;-56
2022/10/23 15:33:29;;;;;;;8.85;6.57;;;25.10;52.80;;;;;;7711147;22;80465;-54
2022/10/23 15:36:29;;;;;;;9.27;6.07;;;25.10;52.90;;;;;;7718676;22;80518;-50
2022/10/23 15:39:34;;;;;;;9.15;5.82;;;25.10;53.00;;;;;;7716616;22;80779;-46
2022/10/23 15:42:34;;;;;;;11.40;6.25;;;25.10;53.20;;;;;;7716752;22;80158;-57